Airport ID:O02
Update Time (UTC):03/12/2021 15:34
Wind Speed (Knots):2
Wind Direction (Magnetic):360
Temperature (°C):-7
Dew Point (°C):-9
Humidity (%):88
Altimeter (inHg):30.25
Density Altitude (Feet):
Visibility (Miles):1/2
Clouds (Hundreds of feet):***
Present Weather:BR
METAR:METAR O02 031530Z AUTO 00000KT 3/4SM BR M07/M09 A3025 RMK A01

The data displayed is for advisory purposes only and is not to be used for flight planning or operations.